createdAt,value
2023-05-10T00:04:37.066Z,93242.41
2023-05-10T00:09:38.783Z,93241.22
2023-05-10T00:14:40.357Z,93236.53
2023-05-10T00:19:43.307Z,93237.69
2023-05-10T00:24:44.867Z,93238.91
2023-05-10T00:29:48.779Z,93234.22
2023-05-10T00:35:01.449Z,93228.47
2023-05-10T00:40:03.119Z,93232.88
2023-05-10T00:45:09.565Z,93227.97
2023-05-10T00:50:12.645Z,93235.75
2023-05-10T00:55:15.950Z,93228.16
2023-05-10T01:00:18.546Z,93230.41
2023-05-10T01:05:21.938Z,93233.63
2023-05-10T01:10:23.867Z,93240.81
2023-05-10T01:15:25.727Z,93247.50
2023-05-10T01:20:36.607Z,93252.06
2023-05-10T01:26:16.554Z,93245.06
2023-05-10T01:31:28.827Z,93243.09
2023-05-10T01:36:40.950Z,93247.09
2023-05-10T01:41:49.006Z,93252.03
2023-05-10T01:46:59.065Z,93261.31
2023-05-10T01:52:09.782Z,93263.69
2023-05-10T01:57:14.654Z,93276.25
2023-05-10T02:02:18.255Z,93274.38
2023-05-10T02:07:22.721Z,93279.69
2023-05-10T02:12:26.284Z,93289.78
2023-05-10T02:17:29.696Z,93294.25
2023-05-10T02:22:37.292Z,93301.06
2023-05-10T02:27:44.982Z,93302.97
2023-05-10T02:32:47.232Z,93303.22
2023-05-10T02:37:51.777Z,93302.38
2023-05-10T02:42:59.604Z,93310.41
2023-05-10T02:48:03.655Z,93314.09
2023-05-10T02:53:12.536Z,93310.28
2023-05-10T02:58:16.435Z,93305.22
2023-05-10T03:03:17.976Z,93311.69
2023-05-10T03:08:21.013Z,93315.03
2023-05-10T03:13:32.941Z,93318.47
2023-05-10T03:18:42.854Z,93328.06
2023-05-10T03:23:51.454Z,93331.50
2023-05-10T03:28:56.347Z,93326.84
2023-05-10T03:33:57.887Z,93333.97
2023-05-10T03:39:03.724Z,93331.56
2023-05-10T03:44:05.360Z,93331.56
2023-05-10T03:49:06.913Z,93328.53
2023-05-10T03:54:09.993Z,93330.34
2023-05-10T03:59:11.635Z,93326.91
2023-05-10T04:09:30.113Z,93341.91
2023-05-10T04:14:31.704Z,93353.06
2023-05-10T04:19:33.954Z,93348.63
2023-05-10T04:24:37.846Z,93346.78
2023-05-10T04:29:41.805Z,93343.50
2023-05-10T04:34:43.398Z,93352.59
2023-05-10T04:39:46.462Z,93364.00
2023-05-10T04:44:48.022Z,93367.28
2023-05-10T04:49:49.678Z,93366.41
2023-05-10T04:54:52.684Z,93370.44
2023-05-10T04:59:54.303Z,93376.56
2023-05-10T05:04:57.409Z,93377.91
2023-05-10T05:10:03.875Z,93380.97
2023-05-10T05:15:09.859Z,93377.47
2023-05-10T05:20:12.089Z,93380.72
2023-05-10T05:25:15.386Z,93380.75
2023-05-10T05:30:25.830Z,93384.16
2023-05-10T05:35:27.499Z,93386.56
2023-05-10T05:40:30.604Z,93391.06
2023-05-10T05:45:32.259Z,93391.31
2023-05-10T05:50:33.897Z,93401.75
2023-05-10T05:55:36.987Z,93402.78
2023-05-10T06:00:38.572Z,93404.16
2023-05-10T06:05:40.367Z,93402.66
2023-05-10T06:10:43.500Z,93410.56
2023-05-10T06:15:45.154Z,93418.69
2023-05-10T06:20:46.839Z,93422.38
2023-05-10T06:25:49.880Z,93427.31
2023-05-10T06:30:54.437Z,93438.97
2023-05-10T06:35:56.065Z,93439.63
2023-05-10T06:41:23.995Z,93441.00
2023-05-10T06:46:26.348Z,93440.44
2023-05-10T06:51:30.928Z,93446.81
2023-05-10T06:56:37.386Z,93448.19
2023-05-10T07:01:39.048Z,93443.56
2023-05-10T07:06:42.985Z,93445.09
2023-05-10T07:11:45.983Z,93455.28
2023-05-10T07:16:47.627Z,93460.19
2023-05-10T07:21:51.269Z,93467.72
2023-05-10T07:26:54.259Z,93461.34
2023-05-10T07:31:58.588Z,93463.88
2023-05-10T07:37:00.968Z,93465.19
2023-05-10T07:42:04.040Z,93461.84
2023-05-10T07:47:08.456Z,93472.81
2023-05-10T07:52:11.053Z,93466.38
2023-05-10T07:57:14.098Z,93462.66
2023-05-10T08:02:18.457Z,93466.88
2023-05-10T08:07:20.328Z,93468.31
2023-05-10T08:12:23.351Z,93472.44
2023-05-10T08:17:25.031Z,93466.84
2023-05-10T08:22:26.605Z,93461.63
2023-05-10T08:27:29.523Z,93455.41
2023-05-10T08:32:31.144Z,93456.00
2023-05-10T08:37:32.819Z,93450.19
2023-05-10T08:42:41.229Z,93461.44
2023-05-10T08:47:44.906Z,93465.78
2023-05-10T08:52:49.251Z,93468.63
2023-05-10T08:57:54.565Z,93473.81
2023-05-10T09:02:56.663Z,93477.88
2023-05-10T09:14:02.893Z,93476.97
2023-05-10T09:19:04.658Z,93481.69
2023-05-10T09:24:07.413Z,93474.81
2023-05-10T09:29:10.380Z,93484.34
2023-05-10T09:34:12.017Z,93484.16
2023-05-10T09:39:13.698Z,93480.03
2023-05-10T09:44:20.144Z,93484.81
2023-05-10T09:49:31.007Z,93488.66
2023-05-10T09:54:35.299Z,93484.84
2023-05-10T09:59:46.075Z,93479.44
2023-05-10T10:04:50.737Z,93481.56
2023-05-10T10:09:52.816Z,93487.44
2023-05-10T10:14:58.982Z,93483.19
2023-05-10T10:20:02.984Z,93488.38
2023-05-10T10:25:07.064Z,93482.69
2023-05-10T10:30:28.310Z,93479.00
2023-05-10T10:35:31.353Z,93483.28
2023-05-10T10:40:35.088Z,93484.44
2023-05-10T10:45:42.201Z,93484.56
2023-05-10T10:50:49.374Z,93490.44
2023-05-10T10:56:08.254Z,93487.16
2023-05-10T11:01:18.214Z,93487.16
2023-05-10T11:06:32.359Z,93487.06
2023-05-10T11:11:35.894Z,93478.81
2023-05-10T11:16:45.416Z,93487.06
2023-05-10T11:21:49.277Z,93487.66
2023-05-10T11:26:51.792Z,93482.75
2023-05-10T11:31:59.312Z,93483.72
2023-05-10T11:37:01.332Z,93503.41
2023-05-10T11:42:05.743Z,93509.78
2023-05-10T11:47:10.956Z,93513.03
2023-05-10T11:52:12.603Z,93510.41
2023-05-10T11:57:14.195Z,93510.50
2023-05-10T12:02:21.859Z,93514.84
2023-05-10T12:07:25.938Z,93521.16
2023-05-10T12:12:29.867Z,93522.09
2023-05-10T12:17:33.146Z,93523.16
2023-05-10T12:22:34.939Z,93530.50
2023-05-10T12:27:36.675Z,93525.53
2023-05-10T12:32:45.341Z,93524.22
2023-05-10T12:37:47.007Z,93522.63
2023-05-10T12:42:48.694Z,93528.41
2023-05-10T12:47:51.639Z,93529.09
2023-05-10T12:52:53.322Z,93550.63
2023-05-10T12:57:55.026Z,93554.50
2023-05-10T13:02:58.068Z,93567.72
2023-05-10T13:08:00.002Z,93563.66
2023-05-10T13:13:04.171Z,93561.22
2023-05-10T13:18:07.207Z,93568.31
2023-05-10T13:23:08.877Z,93566.31
2023-05-10T13:28:10.564Z,93574.00
2023-05-10T13:33:13.586Z,93568.31
2023-05-10T13:38:15.253Z,93574.03
2023-05-10T13:43:16.820Z,93568.94
2023-05-10T13:48:21.830Z,93564.47
2023-05-10T13:53:23.728Z,93557.53
2023-05-10T13:58:25.486Z,93554.66
2023-05-10T14:03:28.717Z,93558.47
2023-05-10T14:08:30.499Z,93543.22
2023-05-10T14:13:34.229Z,93546.84
2023-05-10T14:18:39.983Z,93550.84
2023-05-10T14:23:44.016Z,93554.84
2023-05-10T14:28:45.936Z,93542.69
2023-05-10T14:39:57.461Z,93542.34
2023-05-10T14:44:59.080Z,93544.13
2023-05-10T14:50:00.963Z,93545.78
2023-05-10T14:55:07.266Z,93535.84
2023-05-10T15:00:11.785Z,93550.00
2023-05-10T15:05:14.184Z,93548.16
2023-05-10T15:10:19.413Z,93548.19
2023-05-10T15:15:23.721Z,93550.78
2023-05-10T15:20:25.308Z,93549.31
2023-05-10T15:25:28.432Z,93556.13
2023-05-10T15:30:30.120Z,93557.22
2023-05-10T15:35:31.905Z,93562.25
2023-05-10T15:40:34.915Z,93559.72
2023-05-10T15:45:37.765Z,93564.31
2023-05-10T15:50:39.454Z,93568.88
2023-05-10T15:55:42.376Z,93579.31
2023-05-10T16:00:51.096Z,93583.78
2023-05-10T16:05:52.900Z,93575.88
2023-05-10T16:10:57.974Z,93578.38
2023-05-10T16:16:00.965Z,93578.22
2023-05-10T16:21:06.437Z,93581.69
2023-05-10T16:26:09.493Z,93586.22
2023-05-10T16:31:11.065Z,93590.09
2023-05-10T16:36:12.838Z,93594.59
2023-05-10T16:41:45.927Z,93584.28
2023-05-10T16:46:47.722Z,93594.56
2023-05-10T16:51:49.394Z,93591.34
2023-05-10T16:56:52.382Z,93595.13
2023-05-10T17:01:54.774Z,93591.66
2023-05-10T17:06:56.504Z,93599.28
2023-05-10T17:11:59.560Z,93602.38
2023-05-10T17:17:01.380Z,93604.19
2023-05-10T17:22:03.075Z,93604.00
2023-05-10T17:27:13.610Z,93603.00
2023-05-10T17:38:18.545Z,93612.56
2023-05-10T17:43:21.540Z,93612.81
2023-05-10T17:48:23.094Z,93610.00
2023-05-10T17:53:31.644Z,93612.03
2023-05-10T17:58:37.674Z,93618.44
2023-05-10T18:03:41.688Z,93621.25
2023-05-10T18:08:43.290Z,93621.13
2023-05-10T18:13:48.471Z,93620.03
2023-05-10T18:18:50.111Z,93620.56
2023-05-10T18:23:54.194Z,93625.63
2023-05-10T18:28:59.113Z,93617.69
2023-05-10T18:34:01.772Z,93619.34
2023-05-10T18:39:03.649Z,93612.81
2023-05-10T18:44:08.905Z,93622.00
2023-05-10T18:49:12.850Z,93629.09
2023-05-10T18:54:14.718Z,93620.34
2023-05-10T18:59:17.757Z,93627.41
2023-05-10T19:04:21.863Z,93627.66
2023-05-10T19:09:26.733Z,93619.88
2023-05-10T19:14:32.313Z,93622.97
2023-05-10T19:19:34.631Z,93628.91
2023-05-10T19:24:38.706Z,93628.06
2023-05-10T19:29:41.853Z,93634.78
2023-05-10T19:34:43.760Z,93633.97
2023-05-10T19:39:45.579Z,93635.59
2023-05-10T19:44:48.554Z,93641.72
2023-05-10T19:49:50.250Z,93638.44
2023-05-10T19:54:51.935Z,93642.94
2023-05-10T19:59:55.132Z,93643.94
2023-05-10T20:16:18.426Z,93647.81
2023-05-10T20:21:20.145Z,93655.75
2023-05-10T20:26:21.729Z,93647.19
2023-05-10T20:31:24.896Z,93655.97
2023-05-10T20:36:27.102Z,93653.91
2023-05-10T20:41:28.791Z,93647.19
2023-05-10T20:46:31.998Z,93646.59
2023-05-10T20:51:33.662Z,93651.88
2023-05-10T20:56:36.674Z,93640.91
2023-05-10T21:01:39.728Z,93645.78
2023-05-10T21:06:42.039Z,93647.19
2023-05-10T21:11:58.679Z,93640.69
2023-05-10T21:17:01.858Z,93629.75
2023-05-10T21:22:03.489Z,93643.94
2023-05-10T21:27:05.078Z,93636.00
2023-05-10T21:32:08.133Z,93630.13
2023-05-10T21:37:10.976Z,93630.53
2023-05-10T21:42:12.617Z,93621.97
2023-05-10T21:47:15.627Z,93620.97
2023-05-10T21:52:17.174Z,93625.44
2023-05-10T21:57:18.856Z,93626.25
2023-05-10T22:02:22.048Z,93623.00
2023-05-10T22:07:23.757Z,93617.53
2023-05-10T22:12:32.566Z,93625.22
2023-05-10T22:17:35.671Z,93617.31
2023-05-10T22:22:44.595Z,93618.75
2023-05-10T22:27:48.487Z,93618.50
2023-05-10T22:32:56.703Z,93627.88
2023-05-10T22:37:58.354Z,93623.81
2023-05-10T22:43:00.012Z,93624.41
2023-05-10T22:48:07.030Z,93620.56
2023-05-10T22:53:08.785Z,93618.94
2023-05-10T22:58:10.792Z,93620.16
2023-05-10T23:03:13.843Z,93620.75
2023-05-10T23:08:17.789Z,93615.28
2023-05-10T23:13:19.447Z,93619.91
2023-05-10T23:18:22.525Z,93615.13
2023-05-10T23:23:24.293Z,93617.38
2023-05-10T23:28:26.023Z,93630.69
2023-05-10T23:33:29.914Z,93618.03
2023-05-10T23:38:33.884Z,93622.66
2023-05-10T23:43:36.621Z,93621.72
2023-05-10T23:48:42.028Z,93612.78
2023-05-10T23:53:43.698Z,93622.53
2023-05-10T23:58:45.382Z,93613.19
